sensor_id;sensor_type;location;lat;lon;timestamp;P1;durP1;ratioP1;P2;durP2;ratioP2
13309;SDS011;6723;48.256;16.402;2023-07-31T00:00:27;3.00;;;2.20;;
13309;SDS011;6723;48.256;16.402;2023-07-31T00:02:53;2.23;;;1.90;;
13309;SDS011;6723;48.256;16.402;2023-07-31T00:05:20;2.27;;;1.87;;
13309;SDS011;6723;48.256;16.402;2023-07-31T00:07:46;3.13;;;1.80;;
13309;SDS011;6723;48.256;16.402;2023-07-31T00:10:12;2.00;;;1.83;;
13309;SDS011;6723;48.256;16.402;2023-07-31T00:12:38;2.23;;;2.03;;
13309;SDS011;6723;48.256;16.402;2023-07-31T00:15:05;4.07;;;2.07;;
13309;SDS011;6723;48.256;16.402;2023-07-31T00:17:32;2.13;;;1.90;;
13309;SDS011;6723;48.256;16.402;2023-07-31T00:19:58;4.60;;;1.93;;
13309;SDS011;6723;48.256;16.402;2023-07-31T00:22:24;1.90;;;1.70;;
13309;SDS011;6723;48.256;16.402;2023-07-31T00:24:50;3.33;;;2.07;;
13309;SDS011;6723;48.256;16.402;2023-07-31T00:27:16;2.13;;;1.90;;
13309;SDS011;6723;48.256;16.402;2023-07-31T00:29:42;2.37;;;2.17;;
13309;SDS011;6723;48.256;16.402;2023-07-31T00:32:07;2.50;;;1.80;;
13309;SDS011;6723;48.256;16.402;2023-07-31T00:34:33;2.30;;;1.97;;
13309;SDS011;6723;48.256;16.402;2023-07-31T00:36:59;3.13;;;1.90;;
13309;SDS011;6723;48.256;16.402;2023-07-31T00:39:25;2.50;;;1.83;;
13309;SDS011;6723;48.256;16.402;2023-07-31T00:41:50;3.97;;;2.00;;
13309;SDS011;6723;48.256;16.402;2023-07-31T00:44:16;5.57;;;2.20;;
13309;SDS011;6723;48.256;16.402;2023-07-31T00:46:42;4.20;;;2.03;;
13309;SDS011;6723;48.256;16.402;2023-07-31T00:49:08;2.50;;;2.03;;
13309;SDS011;6723;48.256;16.402;2023-07-31T00:51:35;2.70;;;1.43;;
13309;SDS011;6723;48.256;16.402;2023-07-31T00:54:01;5.17;;;2.03;;
13309;SDS011;6723;48.256;16.402;2023-07-31T00:56:28;2.80;;;2.00;;
13309;SDS011;6723;48.256;16.402;2023-07-31T00:58:54;3.23;;;1.97;;
13309;SDS011;6723;48.256;16.402;2023-07-31T01:01:20;2.90;;;1.93;;
13309;SDS011;6723;48.256;16.402;2023-07-31T01:03:47;2.30;;;1.70;;
13309;SDS011;6723;48.256;16.402;2023-07-31T01:06:31;2.83;;;2.00;;
13309;SDS011;6723;48.256;16.402;2023-07-31T01:09:04;2.30;;;1.80;;
13309;SDS011;6723;48.256;16.402;2023-07-31T01:11:53;3.03;;;1.60;;
13309;SDS011;6723;48.256;16.402;2023-07-31T01:14:22;1.80;;;1.70;;
13309;SDS011;6723;48.256;16.402;2023-07-31T01:16:48;2.00;;;1.80;;
13309;SDS011;6723;48.256;16.402;2023-07-31T01:19:14;2.03;;;1.83;;
13309;SDS011;6723;48.256;16.402;2023-07-31T01:22:02;2.47;;;2.00;;
13309;SDS011;6723;48.256;16.402;2023-07-31T01:24:50;3.70;;;1.77;;
13309;SDS011;6723;48.256;16.402;2023-07-31T01:27:26;2.77;;;1.83;;
13309;SDS011;6723;48.256;16.402;2023-07-31T01:29:58;2.43;;;1.47;;
13309;SDS011;6723;48.256;16.402;2023-07-31T01:32:39;2.33;;;1.70;;
13309;SDS011;6723;48.256;16.402;2023-07-31T01:35:07;3.63;;;1.70;;
13309;SDS011;6723;48.256;16.402;2023-07-31T01:37:34;3.83;;;1.90;;
13309;SDS011;6723;48.256;16.402;2023-07-31T01:39:59;2.47;;;1.87;;
13309;SDS011;6723;48.256;16.402;2023-07-31T01:42:25;1.70;;;1.53;;
13309;SDS011;6723;48.256;16.402;2023-07-31T01:44:51;2.10;;;1.67;;
13309;SDS011;6723;48.256;16.402;2023-07-31T01:47:17;4.47;;;1.90;;
13309;SDS011;6723;48.256;16.402;2023-07-31T01:49:43;2.03;;;1.80;;
13309;SDS011;6723;48.256;16.402;2023-07-31T01:52:08;2.50;;;1.90;;
13309;SDS011;6723;48.256;16.402;2023-07-31T01:54:34;2.23;;;1.90;;
13309;SDS011;6723;48.256;16.402;2023-07-31T01:57:01;2.13;;;1.93;;
13309;SDS011;6723;48.256;16.402;2023-07-31T01:59:27;3.83;;;1.80;;
13309;SDS011;6723;48.256;16.402;2023-07-31T02:01:54;2.30;;;1.67;;
13309;SDS011;6723;48.256;16.402;2023-07-31T02:04:19;2.83;;;1.97;;
13309;SDS011;6723;48.256;16.402;2023-07-31T02:06:45;2.67;;;1.60;;
13309;SDS011;6723;48.256;16.402;2023-07-31T02:09:11;3.23;;;1.70;;
13309;SDS011;6723;48.256;16.402;2023-07-31T02:11:37;2.53;;;1.80;;
13309;SDS011;6723;48.256;16.402;2023-07-31T02:14:03;2.10;;;1.90;;
13309;SDS011;6723;48.256;16.402;2023-07-31T02:16:28;4.33;;;1.83;;
13309;SDS011;6723;48.256;16.402;2023-07-31T02:18:54;3.87;;;1.87;;
13309;SDS011;6723;48.256;16.402;2023-07-31T02:21:20;2.57;;;1.80;;
13309;SDS011;6723;48.256;16.402;2023-07-31T02:23:46;2.47;;;2.03;;
13309;SDS011;6723;48.256;16.402;2023-07-31T02:26:11;3.50;;;1.90;;
13309;SDS011;6723;48.256;16.402;2023-07-31T02:28:37;2.10;;;1.83;;
13309;SDS011;6723;48.256;16.402;2023-07-31T02:31:03;4.97;;;1.90;;
13309;SDS011;6723;48.256;16.402;2023-07-31T02:33:29;5.60;;;2.00;;
13309;SDS011;6723;48.256;16.402;2023-07-31T02:35:54;3.70;;;2.13;;
13309;SDS011;6723;48.256;16.402;2023-07-31T02:38:20;4.03;;;1.70;;
13309;SDS011;6723;48.256;16.402;2023-07-31T02:40:46;2.87;;;1.87;;
13309;SDS011;6723;48.256;16.402;2023-07-31T02:43:13;2.60;;;1.93;;
13309;SDS011;6723;48.256;16.402;2023-07-31T02:45:39;3.60;;;2.20;;
13309;SDS011;6723;48.256;16.402;2023-07-31T02:48:05;4.40;;;1.87;;
13309;SDS011;6723;48.256;16.402;2023-07-31T02:50:30;2.40;;;1.97;;
13309;SDS011;6723;48.256;16.402;2023-07-31T02:52:57;5.00;;;2.20;;
13309;SDS011;6723;48.256;16.402;2023-07-31T02:55:23;3.20;;;2.20;;
13309;SDS011;6723;48.256;16.402;2023-07-31T02:57:48;3.73;;;2.10;;
13309;SDS011;6723;48.256;16.402;2023-07-31T03:00:14;3.40;;;1.80;;
13309;SDS011;6723;48.256;16.402;2023-07-31T03:02:40;3.67;;;2.00;;
13309;SDS011;6723;48.256;16.402;2023-07-31T03:05:06;2.70;;;1.93;;
13309;SDS011;6723;48.256;16.402;2023-07-31T03:07:32;4.20;;;1.83;;
13309;SDS011;6723;48.256;16.402;2023-07-31T03:09:58;2.27;;;2.00;;
13309;SDS011;6723;48.256;16.402;2023-07-31T03:12:24;3.20;;;1.90;;
13309;SDS011;6723;48.256;16.402;2023-07-31T03:14:50;3.70;;;2.00;;
13309;SDS011;6723;48.256;16.402;2023-07-31T03:17:15;2.93;;;1.70;;
13309;SDS011;6723;48.256;16.402;2023-07-31T03:19:41;2.23;;;1.87;;
13309;SDS011;6723;48.256;16.402;2023-07-31T03:22:07;3.83;;;1.97;;
13309;SDS011;6723;48.256;16.402;2023-07-31T03:24:32;3.10;;;2.27;;
13309;SDS011;6723;48.256;16.402;2023-07-31T03:26:58;2.40;;;2.00;;
13309;SDS011;6723;48.256;16.402;2023-07-31T03:29:24;2.27;;;1.87;;
13309;SDS011;6723;48.256;16.402;2023-07-31T03:31:49;2.17;;;1.97;;
13309;SDS011;6723;48.256;16.402;2023-07-31T03:34:15;2.90;;;1.83;;
13309;SDS011;6723;48.256;16.402;2023-07-31T03:36:42;2.33;;;1.83;;
13309;SDS011;6723;48.256;16.402;2023-07-31T03:39:08;2.20;;;1.87;;
13309;SDS011;6723;48.256;16.402;2023-07-31T03:41:33;2.97;;;1.87;;
13309;SDS011;6723;48.256;16.402;2023-07-31T03:43:59;2.57;;;1.80;;
13309;SDS011;6723;48.256;16.402;2023-07-31T03:46:25;3.07;;;1.97;;
13309;SDS011;6723;48.256;16.402;2023-07-31T03:48:50;2.83;;;2.10;;
13309;SDS011;6723;48.256;16.402;2023-07-31T03:51:16;3.77;;;2.07;;
13309;SDS011;6723;48.256;16.402;2023-07-31T03:53:43;3.87;;;1.97;;
13309;SDS011;6723;48.256;16.402;2023-07-31T03:56:10;3.10;;;2.10;;
13309;SDS011;6723;48.256;16.402;2023-07-31T03:58:36;3.70;;;1.70;;
13309;SDS011;6723;48.256;16.402;2023-07-31T04:01:02;3.40;;;2.30;;
13309;SDS011;6723;48.256;16.402;2023-07-31T04:03:29;2.20;;;2.00;;
13309;SDS011;6723;48.256;16.402;2023-07-31T04:05:55;4.63;;;2.00;;
13309;SDS011;6723;48.256;16.402;2023-07-31T04:08:21;3.90;;;1.80;;
13309;SDS011;6723;48.256;16.402;2023-07-31T04:10:48;2.20;;;1.77;;
13309;SDS011;6723;48.256;16.402;2023-07-31T04:13:14;2.67;;;2.10;;
13309;SDS011;6723;48.256;16.402;2023-07-31T04:15:40;3.37;;;2.03;;
13309;SDS011;6723;48.256;16.402;2023-07-31T04:18:07;4.10;;;1.87;;
13309;SDS011;6723;48.256;16.402;2023-07-31T04:20:33;4.50;;;2.17;;
13309;SDS011;6723;48.256;16.402;2023-07-31T04:22:59;3.77;;;2.00;;
13309;SDS011;6723;48.256;16.402;2023-07-31T04:25:24;2.50;;;2.07;;
13309;SDS011;6723;48.256;16.402;2023-07-31T04:27:50;3.77;;;2.50;;
13309;SDS011;6723;48.256;16.402;2023-07-31T04:30:16;3.13;;;2.40;;
13309;SDS011;6723;48.256;16.402;2023-07-31T04:32:42;2.90;;;2.00;;
13309;SDS011;6723;48.256;16.402;2023-07-31T04:35:07;5.23;;;2.00;;
13309;SDS011;6723;48.256;16.402;2023-07-31T04:37:33;3.33;;;2.30;;
13309;SDS011;6723;48.256;16.402;2023-07-31T04:39:59;3.47;;;2.00;;
13309;SDS011;6723;48.256;16.402;2023-07-31T04:42:25;4.33;;;2.10;;
13309;SDS011;6723;48.256;16.402;2023-07-31T04:44:50;2.97;;;2.40;;
13309;SDS011;6723;48.256;16.402;2023-07-31T04:47:18;5.80;;;2.30;;
13309;SDS011;6723;48.256;16.402;2023-07-31T04:49:44;5.13;;;2.40;;
13309;SDS011;6723;48.256;16.402;2023-07-31T04:52:09;4.33;;;2.60;;
13309;SDS011;6723;48.256;16.402;2023-07-31T04:54:35;3.47;;;2.50;;
13309;SDS011;6723;48.256;16.402;2023-07-31T04:57:01;2.93;;;2.70;;
13309;SDS011;6723;48.256;16.402;2023-07-31T04:59:27;5.57;;;2.57;;
13309;SDS011;6723;48.256;16.402;2023-07-31T05:01:53;3.83;;;2.43;;
13309;SDS011;6723;48.256;16.402;2023-07-31T05:04:18;3.13;;;2.47;;
13309;SDS011;6723;48.256;16.402;2023-07-31T05:06:44;3.63;;;2.47;;
13309;SDS011;6723;48.256;16.402;2023-07-31T05:09:10;6.10;;;2.40;;
13309;SDS011;6723;48.256;16.402;2023-07-31T05:11:35;3.93;;;2.70;;
13309;SDS011;6723;48.256;16.402;2023-07-31T05:14:01;4.33;;;2.50;;
13309;SDS011;6723;48.256;16.402;2023-07-31T05:16:27;4.27;;;2.43;;
13309;SDS011;6723;48.256;16.402;2023-07-31T05:18:53;3.80;;;2.40;;
13309;SDS011;6723;48.256;16.402;2023-07-31T05:21:18;2.90;;;2.50;;
13309;SDS011;6723;48.256;16.402;2023-07-31T05:23:44;3.00;;;2.27;;
13309;SDS011;6723;48.256;16.402;2023-07-31T05:26:10;5.63;;;2.40;;
13309;SDS011;6723;48.256;16.402;2023-07-31T05:28:36;3.63;;;2.10;;
13309;SDS011;6723;48.256;16.402;2023-07-31T05:31:02;6.50;;;2.27;;
13309;SDS011;6723;48.256;16.402;2023-07-31T05:33:29;4.23;;;2.23;;
13309;SDS011;6723;48.256;16.402;2023-07-31T05:35:56;5.00;;;2.37;;
13309;SDS011;6723;48.256;16.402;2023-07-31T05:38:22;3.47;;;2.53;;
13309;SDS011;6723;48.256;16.402;2023-07-31T05:40:48;4.67;;;2.50;;
13309;SDS011;6723;48.256;16.402;2023-07-31T05:43:14;6.77;;;2.43;;
13309;SDS011;6723;48.256;16.402;2023-07-31T05:45:40;4.47;;;3.07;;
13309;SDS011;6723;48.256;16.402;2023-07-31T05:48:07;5.80;;;2.70;;
13309;SDS011;6723;48.256;16.402;2023-07-31T05:50:33;4.87;;;2.40;;
13309;SDS011;6723;48.256;16.402;2023-07-31T05:52:58;5.40;;;2.57;;
13309;SDS011;6723;48.256;16.402;2023-07-31T05:55:24;6.50;;;2.10;;
13309;SDS011;6723;48.256;16.402;2023-07-31T05:57:54;3.87;;;2.00;;
13309;SDS011;6723;48.256;16.402;2023-07-31T06:00:20;2.43;;;2.00;;
13309;SDS011;6723;48.256;16.402;2023-07-31T06:02:49;4.37;;;2.00;;
13309;SDS011;6723;48.256;16.402;2023-07-31T06:05:15;3.07;;;2.20;;
13309;SDS011;6723;48.256;16.402;2023-07-31T06:07:40;2.43;;;1.87;;
13309;SDS011;6723;48.256;16.402;2023-07-31T06:10:06;4.73;;;1.93;;
13309;SDS011;6723;48.256;16.402;2023-07-31T06:12:33;5.30;;;2.07;;
13309;SDS011;6723;48.256;16.402;2023-07-31T06:15:00;2.33;;;1.80;;
13309;SDS011;6723;48.256;16.402;2023-07-31T06:17:27;3.50;;;2.07;;
13309;SDS011;6723;48.256;16.402;2023-07-31T06:19:55;4.07;;;1.87;;
13309;SDS011;6723;48.256;16.402;2023-07-31T06:22:22;3.13;;;1.97;;
13309;SDS011;6723;48.256;16.402;2023-07-31T06:24:48;7.60;;;2.33;;
13309;SDS011;6723;48.256;16.402;2023-07-31T06:27:14;4.87;;;2.17;;
13309;SDS011;6723;48.256;16.402;2023-07-31T06:29:39;4.03;;;2.00;;
13309;SDS011;6723;48.256;16.402;2023-07-31T06:32:06;5.00;;;2.27;;
13309;SDS011;6723;48.256;16.402;2023-07-31T06:34:32;4.60;;;1.80;;
13309;SDS011;6723;48.256;16.402;2023-07-31T06:36:58;2.47;;;2.00;;
13309;SDS011;6723;48.256;16.402;2023-07-31T06:39:24;5.27;;;2.00;;
13309;SDS011;6723;48.256;16.402;2023-07-31T06:41:50;2.87;;;1.87;;
13309;SDS011;6723;48.256;16.402;2023-07-31T06:44:15;4.00;;;2.10;;
13309;SDS011;6723;48.256;16.402;2023-07-31T06:46:41;4.00;;;2.03;;
13309;SDS011;6723;48.256;16.402;2023-07-31T06:49:07;4.33;;;1.87;;
13309;SDS011;6723;48.256;16.402;2023-07-31T06:51:33;4.47;;;2.10;;
13309;SDS011;6723;48.256;16.402;2023-07-31T06:54:01;5.57;;;1.90;;
13309;SDS011;6723;48.256;16.402;2023-07-31T06:56:26;4.27;;;2.10;;
13309;SDS011;6723;48.256;16.402;2023-07-31T06:58:52;3.13;;;1.97;;
13309;SDS011;6723;48.256;16.402;2023-07-31T07:01:18;4.33;;;2.10;;
13309;SDS011;6723;48.256;16.402;2023-07-31T07:03:44;3.33;;;2.00;;
13309;SDS011;6723;48.256;16.402;2023-07-31T07:06:10;3.97;;;2.00;;
13309;SDS011;6723;48.256;16.402;2023-07-31T07:08:35;3.07;;;1.77;;
13309;SDS011;6723;48.256;16.402;2023-07-31T07:11:01;3.97;;;1.90;;
13309;SDS011;6723;48.256;16.402;2023-07-31T07:13:27;4.20;;;1.57;;
13309;SDS011;6723;48.256;16.402;2023-07-31T07:15:52;3.47;;;1.57;;
13309;SDS011;6723;48.256;16.402;2023-07-31T07:18:18;3.30;;;1.90;;
13309;SDS011;6723;48.256;16.402;2023-07-31T07:20:49;3.97;;;1.90;;
13309;SDS011;6723;48.256;16.402;2023-07-31T07:23:16;2.67;;;2.10;;
13309;SDS011;6723;48.256;16.402;2023-07-31T07:25:42;4.80;;;3.57;;
13309;SDS011;6723;48.256;16.402;2023-07-31T07:28:11;4.53;;;2.00;;
13309;SDS011;6723;48.256;16.402;2023-07-31T07:30:36;4.70;;;1.90;;
13309;SDS011;6723;48.256;16.402;2023-07-31T07:33:02;3.22;;;1.65;;
13309;SDS011;6723;48.256;16.402;2023-07-31T07:35:28;3.22;;;1.60;;
13309;SDS011;6723;48.256;16.402;2023-07-31T07:37:54;3.42;;;1.63;;
13309;SDS011;6723;48.256;16.402;2023-07-31T07:40:20;2.88;;;1.63;;
13309;SDS011;6723;48.256;16.402;2023-07-31T07:42:46;4.68;;;1.88;;
13309;SDS011;6723;48.256;16.402;2023-07-31T07:45:12;4.53;;;2.00;;
13309;SDS011;6723;48.256;16.402;2023-07-31T07:47:40;1.70;;;1.35;;
13309;SDS011;6723;48.256;16.402;2023-07-31T07:50:07;3.55;;;1.60;;
13309;SDS011;6723;48.256;16.402;2023-07-31T07:52:34;1.98;;;1.40;;
13309;SDS011;6723;48.256;16.402;2023-07-31T07:54:59;3.25;;;1.60;;
13309;SDS011;6723;48.256;16.402;2023-07-31T07:57:25;3.47;;;1.42;;
13309;SDS011;6723;48.256;16.402;2023-07-31T07:59:52;2.10;;;1.40;;
13309;SDS011;6723;48.256;16.402;2023-07-31T08:02:18;3.63;;;1.55;;
13309;SDS011;6723;48.256;16.402;2023-07-31T08:04:43;4.55;;;1.60;;
13309;SDS011;6723;48.256;16.402;2023-07-31T08:07:12;3.03;;;1.30;;
13309;SDS011;6723;48.256;16.402;2023-07-31T08:09:38;4.65;;;1.75;;
13309;SDS011;6723;48.256;16.402;2023-07-31T08:12:05;3.17;;;1.67;;
13309;SDS011;6723;48.256;16.402;2023-07-31T08:14:31;3.90;;;1.80;;
13309;SDS011;6723;48.256;16.402;2023-07-31T08:16:57;3.50;;;1.67;;
13309;SDS011;6723;48.256;16.402;2023-07-31T08:19:23;3.40;;;1.85;;
13309;SDS011;6723;48.256;16.402;2023-07-31T08:21:49;2.35;;;1.50;;
13309;SDS011;6723;48.256;16.402;2023-07-31T08:24:15;3.20;;;1.60;;
13309;SDS011;6723;48.256;16.402;2023-07-31T08:26:41;6.88;;;1.92;;
13309;SDS011;6723;48.256;16.402;2023-07-31T08:29:07;4.68;;;1.63;;
13309;SDS011;6723;48.256;16.402;2023-07-31T08:31:33;3.83;;;1.48;;
13309;SDS011;6723;48.256;16.402;2023-07-31T08:33:59;2.90;;;1.67;;
13309;SDS011;6723;48.256;16.402;2023-07-31T08:36:26;2.42;;;1.25;;
13309;SDS011;6723;48.256;16.402;2023-07-31T08:38:52;3.63;;;1.50;;
13309;SDS011;6723;48.256;16.402;2023-07-31T08:41:18;2.72;;;1.45;;
13309;SDS011;6723;48.256;16.402;2023-07-31T08:43:45;2.55;;;1.42;;
13309;SDS011;6723;48.256;16.402;2023-07-31T08:46:12;2.80;;;1.35;;
13309;SDS011;6723;48.256;16.402;2023-07-31T08:48:40;2.65;;;1.40;;
13309;SDS011;6723;48.256;16.402;2023-07-31T08:51:10;2.42;;;1.23;;
13309;SDS011;6723;48.256;16.402;2023-07-31T08:53:36;3.78;;;1.48;;
13309;SDS011;6723;48.256;16.402;2023-07-31T08:56:02;2.63;;;1.20;;
13309;SDS011;6723;48.256;16.402;2023-07-31T08:58:32;3.47;;;1.40;;
13309;SDS011;6723;48.256;16.402;2023-07-31T09:01:03;3.00;;;1.50;;
13309;SDS011;6723;48.256;16.402;2023-07-31T09:03:31;3.10;;;1.45;;
13309;SDS011;6723;48.256;16.402;2023-07-31T09:06:00;2.65;;;1.40;;
13309;SDS011;6723;48.256;16.402;2023-07-31T09:08:29;2.55;;;1.20;;
13309;SDS011;6723;48.256;16.402;2023-07-31T09:10:59;3.30;;;1.52;;
13309;SDS011;6723;48.256;16.402;2023-07-31T09:13:28;2.78;;;2.10;;
13309;SDS011;6723;48.256;16.402;2023-07-31T09:15:56;2.60;;;1.30;;
13309;SDS011;6723;48.256;16.402;2023-07-31T09:18:22;2.00;;;1.35;;
13309;SDS011;6723;48.256;16.402;2023-07-31T09:21:04;1.92;;;1.40;;
13309;SDS011;6723;48.256;16.402;2023-07-31T09:23:43;3.33;;;1.50;;
13309;SDS011;6723;48.256;16.402;2023-07-31T09:26:10;3.67;;;1.45;;
13309;SDS011;6723;48.256;16.402;2023-07-31T09:28:53;1.80;;;1.60;;
13309;SDS011;6723;48.256;16.402;2023-07-31T09:31:31;2.78;;;1.40;;
13309;SDS011;6723;48.256;16.402;2023-07-31T09:34:07;3.85;;;1.70;;
13309;SDS011;6723;48.256;16.402;2023-07-31T09:36:38;2.30;;;1.23;;
13309;SDS011;6723;48.256;16.402;2023-07-31T09:39:12;2.53;;;1.38;;
13309;SDS011;6723;48.256;16.402;2023-07-31T09:41:41;2.20;;;1.33;;
13309;SDS011;6723;48.256;16.402;2023-07-31T09:44:09;1.63;;;1.40;;
13309;SDS011;6723;48.256;16.402;2023-07-31T09:46:35;1.77;;;1.30;;
13309;SDS011;6723;48.256;16.402;2023-07-31T09:49:06;1.88;;;1.30;;
13309;SDS011;6723;48.256;16.402;2023-07-31T09:51:34;2.38;;;1.30;;
13309;SDS011;6723;48.256;16.402;2023-07-31T09:54:13;1.90;;;1.10;;
13309;SDS011;6723;48.256;16.402;2023-07-31T09:56:43;2.63;;;1.40;;
13309;SDS011;6723;48.256;16.402;2023-07-31T09:59:14;1.90;;;1.50;;
13309;SDS011;6723;48.256;16.402;2023-07-31T10:01:42;2.15;;;1.60;;
13309;SDS011;6723;48.256;16.402;2023-07-31T10:04:09;2.85;;;1.40;;
13309;SDS011;6723;48.256;16.402;2023-07-31T10:06:36;3.53;;;1.40;;
13309;SDS011;6723;48.256;16.402;2023-07-31T10:09:08;2.58;;;1.52;;
13309;SDS011;6723;48.256;16.402;2023-07-31T10:11:43;3.40;;;1.70;;
13309;SDS011;6723;48.256;16.402;2023-07-31T10:14:22;4.47;;;1.58;;
13309;SDS011;6723;48.256;16.402;2023-07-31T10:16:49;2.63;;;1.75;;
13309;SDS011;6723;48.256;16.402;2023-07-31T10:19:16;3.70;;;1.58;;
13309;SDS011;6723;48.256;16.402;2023-07-31T10:21:43;3.42;;;1.60;;
13309;SDS011;6723;48.256;16.402;2023-07-31T10:24:09;3.45;;;1.58;;
13309;SDS011;6723;48.256;16.402;2023-07-31T10:26:37;4.15;;;1.63;;
13309;SDS011;6723;48.256;16.402;2023-07-31T10:29:04;5.00;;;1.80;;
13309;SDS011;6723;48.256;16.402;2023-07-31T10:31:31;2.92;;;1.60;;
13309;SDS011;6723;48.256;16.402;2023-07-31T10:33:59;2.83;;;1.55;;
13309;SDS011;6723;48.256;16.402;2023-07-31T10:36:28;4.73;;;1.60;;
13309;SDS011;6723;48.256;16.402;2023-07-31T10:38:55;3.23;;;1.70;;
13309;SDS011;6723;48.256;16.402;2023-07-31T10:41:31;3.63;;;1.73;;
13309;SDS011;6723;48.256;16.402;2023-07-31T10:43:57;3.83;;;1.60;;
13309;SDS011;6723;48.256;16.402;2023-07-31T10:46:29;3.60;;;1.55;;
13309;SDS011;6723;48.256;16.402;2023-07-31T10:48:58;3.60;;;1.70;;
13309;SDS011;6723;48.256;16.402;2023-07-31T10:51:33;3.92;;;1.75;;
13309;SDS011;6723;48.256;16.402;2023-07-31T10:54:13;3.72;;;1.65;;
13309;SDS011;6723;48.256;16.402;2023-07-31T10:56:46;4.95;;;1.88;;
13309;SDS011;6723;48.256;16.402;2023-07-31T10:59:15;3.05;;;1.75;;
13309;SDS011;6723;48.256;16.402;2023-07-31T11:01:56;6.50;;;1.73;;
13309;SDS011;6723;48.256;16.402;2023-07-31T11:04:23;5.30;;;1.45;;
13309;SDS011;6723;48.256;16.402;2023-07-31T11:06:56;2.85;;;1.50;;
13309;SDS011;6723;48.256;16.402;2023-07-31T11:09:30;5.85;;;1.60;;
13309;SDS011;6723;48.256;16.402;2023-07-31T11:11:59;4.47;;;1.80;;
13309;SDS011;6723;48.256;16.402;2023-07-31T11:14:25;2.58;;;1.52;;
13309;SDS011;6723;48.256;16.402;2023-07-31T11:16:51;4.30;;;1.63;;
13309;SDS011;6723;48.256;16.402;2023-07-31T11:19:24;3.33;;;1.70;;
13309;SDS011;6723;48.256;16.402;2023-07-31T11:21:51;4.13;;;1.60;;
13309;SDS011;6723;48.256;16.402;2023-07-31T11:24:20;2.42;;;1.42;;
13309;SDS011;6723;48.256;16.402;2023-07-31T11:26:53;2.55;;;1.58;;
13309;SDS011;6723;48.256;16.402;2023-07-31T11:29:19;4.20;;;1.70;;
13309;SDS011;6723;48.256;16.402;2023-07-31T11:31:46;3.25;;;1.50;;
13309;SDS011;6723;48.256;16.402;2023-07-31T11:34:14;3.80;;;1.58;;
13309;SDS011;6723;48.256;16.402;2023-07-31T11:36:40;2.67;;;1.48;;
13309;SDS011;6723;48.256;16.402;2023-07-31T11:39:09;3.55;;;1.60;;
13309;SDS011;6723;48.256;16.402;2023-07-31T11:41:36;2.30;;;1.58;;
13309;SDS011;6723;48.256;16.402;2023-07-31T11:44:05;6.55;;;1.55;;
13309;SDS011;6723;48.256;16.402;2023-07-31T11:46:31;1.77;;;1.50;;
13309;SDS011;6723;48.256;16.402;2023-07-31T11:49:01;3.78;;;1.52;;
13309;SDS011;6723;48.256;16.402;2023-07-31T11:51:27;3.40;;;1.73;;
13309;SDS011;6723;48.256;16.402;2023-07-31T11:53:57;3.30;;;1.52;;
13309;SDS011;6723;48.256;16.402;2023-07-31T11:56:26;4.18;;;2.30;;
13309;SDS011;6723;48.256;16.402;2023-07-31T11:58:55;5.82;;;2.88;;
13309;SDS011;6723;48.256;16.402;2023-07-31T12:01:23;3.20;;;1.50;;
13309;SDS011;6723;48.256;16.402;2023-07-31T12:03:52;3.88;;;1.88;;
13309;SDS011;6723;48.256;16.402;2023-07-31T12:06:19;3.35;;;1.88;;
13309;SDS011;6723;48.256;16.402;2023-07-31T12:08:46;3.25;;;1.90;;
13309;SDS011;6723;48.256;16.402;2023-07-31T12:11:12;4.18;;;1.80;;
13309;SDS011;6723;48.256;16.402;2023-07-31T12:13:42;3.97;;;2.10;;
13309;SDS011;6723;48.256;16.402;2023-07-31T12:16:08;3.90;;;1.80;;
13309;SDS011;6723;48.256;16.402;2023-07-31T12:18:35;4.50;;;1.92;;
13309;SDS011;6723;48.256;16.402;2023-07-31T12:21:04;3.10;;;1.55;;
13309;SDS011;6723;48.256;16.402;2023-07-31T12:23:31;1.70;;;1.33;;
13309;SDS011;6723;48.256;16.402;2023-07-31T12:28:41;2.60;;;1.20;;
13309;SDS011;6723;48.256;16.402;2023-07-31T12:31:09;4.72;;;1.77;;
13309;SDS011;6723;48.256;16.402;2023-07-31T12:33:37;2.13;;;1.40;;
13309;SDS011;6723;48.256;16.402;2023-07-31T12:36:06;3.72;;;1.58;;
13309;SDS011;6723;48.256;16.402;2023-07-31T12:38:39;3.92;;;1.83;;
13309;SDS011;6723;48.256;16.402;2023-07-31T12:41:06;3.45;;;1.73;;
13309;SDS011;6723;48.256;16.402;2023-07-31T12:43:36;2.30;;;1.70;;
13309;SDS011;6723;48.256;16.402;2023-07-31T12:46:03;3.97;;;1.53;;
13309;SDS011;6723;48.256;16.402;2023-07-31T12:48:31;6.23;;;1.90;;
13309;SDS011;6723;48.256;16.402;2023-07-31T12:50:57;3.00;;;1.60;;
13309;SDS011;6723;48.256;16.402;2023-07-31T12:53:23;4.87;;;1.70;;
13309;SDS011;6723;48.256;16.402;2023-07-31T12:55:49;2.17;;;1.50;;
13309;SDS011;6723;48.256;16.402;2023-07-31T12:58:15;2.87;;;1.60;;
13309;SDS011;6723;48.256;16.402;2023-07-31T13:00:41;5.30;;;2.00;;
13309;SDS011;6723;48.256;16.402;2023-07-31T13:03:08;5.18;;;1.60;;
13309;SDS011;6723;48.256;16.402;2023-07-31T13:05:33;2.33;;;1.48;;
13309;SDS011;6723;48.256;16.402;2023-07-31T13:07:59;5.70;;;1.58;;
13309;SDS011;6723;48.256;16.402;2023-07-31T13:10:25;1.83;;;1.27;;
13309;SDS011;6723;48.256;16.402;2023-07-31T13:12:54;4.07;;;1.45;;
13309;SDS011;6723;48.256;16.402;2023-07-31T13:15:20;3.90;;;1.38;;
13309;SDS011;6723;48.256;16.402;2023-07-31T13:17:46;2.38;;;1.40;;
13309;SDS011;6723;48.256;16.402;2023-07-31T13:20:12;2.95;;;2.20;;
13309;SDS011;6723;48.256;16.402;2023-07-31T13:22:38;2.10;;;1.52;;
13309;SDS011;6723;48.256;16.402;2023-07-31T13:25:04;3.25;;;1.45;;
13309;SDS011;6723;48.256;16.402;2023-07-31T13:27:30;5.27;;;1.50;;
13309;SDS011;6723;48.256;16.402;2023-07-31T13:29:56;4.33;;;1.60;;
13309;SDS011;6723;48.256;16.402;2023-07-31T13:32:22;2.50;;;1.60;;
13309;SDS011;6723;48.256;16.402;2023-07-31T13:34:48;2.33;;;1.57;;
13309;SDS011;6723;48.256;16.402;2023-07-31T13:37:15;3.25;;;1.58;;
13309;SDS011;6723;48.256;16.402;2023-07-31T13:39:41;4.37;;;1.33;;
13309;SDS011;6723;48.256;16.402;2023-07-31T13:42:07;4.32;;;1.50;;
13309;SDS011;6723;48.256;16.402;2023-07-31T13:44:34;2.93;;;1.57;;
13309;SDS011;6723;48.256;16.402;2023-07-31T13:47:00;4.28;;;1.90;;
13309;SDS011;6723;48.256;16.402;2023-07-31T13:49:27;3.40;;;1.73;;
13309;SDS011;6723;48.256;16.402;2023-07-31T13:51:53;4.70;;;2.67;;
13309;SDS011;6723;48.256;16.402;2023-07-31T13:54:19;3.47;;;2.03;;
13309;SDS011;6723;48.256;16.402;2023-07-31T13:56:45;5.33;;;2.67;;
13309;SDS011;6723;48.256;16.402;2023-07-31T13:59:11;2.90;;;1.97;;
13309;SDS011;6723;48.256;16.402;2023-07-31T14:01:37;4.67;;;2.07;;
13309;SDS011;6723;48.256;16.402;2023-07-31T14:04:03;2.40;;;1.60;;
13309;SDS011;6723;48.256;16.402;2023-07-31T14:06:29;3.60;;;2.10;;
13309;SDS011;6723;48.256;16.402;2023-07-31T14:08:54;4.87;;;1.80;;
13309;SDS011;6723;48.256;16.402;2023-07-31T14:11:21;3.50;;;1.60;;
13309;SDS011;6723;48.256;16.402;2023-07-31T14:13:47;2.73;;;1.70;;
13309;SDS011;6723;48.256;16.402;2023-07-31T14:16:15;3.57;;;1.87;;
13309;SDS011;6723;48.256;16.402;2023-07-31T14:18:41;2.97;;;1.50;;
13309;SDS011;6723;48.256;16.402;2023-07-31T14:21:07;3.07;;;1.87;;
13309;SDS011;6723;48.256;16.402;2023-07-31T14:23:33;2.73;;;1.60;;
13309;SDS011;6723;48.256;16.402;2023-07-31T14:25:59;2.23;;;1.60;;
13309;SDS011;6723;48.256;16.402;2023-07-31T14:28:25;3.60;;;1.60;;
13309;SDS011;6723;48.256;16.402;2023-07-31T14:30:50;4.67;;;1.70;;
13309;SDS011;6723;48.256;16.402;2023-07-31T14:33:16;4.50;;;1.70;;
13309;SDS011;6723;48.256;16.402;2023-07-31T14:35:42;3.17;;;1.80;;
13309;SDS011;6723;48.256;16.402;2023-07-31T14:38:08;8.03;;;1.70;;
13309;SDS011;6723;48.256;16.402;2023-07-31T14:40:34;2.83;;;1.33;;
13309;SDS011;6723;48.256;16.402;2023-07-31T14:43:00;3.67;;;1.87;;
13309;SDS011;6723;48.256;16.402;2023-07-31T14:45:25;1.83;;;1.43;;
13309;SDS011;6723;48.256;16.402;2023-07-31T14:47:51;2.37;;;1.80;;
13309;SDS011;6723;48.256;16.402;2023-07-31T14:50:17;3.00;;;1.60;;